Time;durP1;ratioP1;P1;durP2;ratioP2;P2;SDS_P1;SDS_P2;PMS_P1;PMS_P2;Temp;Humidity;BMP_temperature;BMP_pressure;BME280_temperature;BME280_humidity;BME280_pressure;Samples;Min_cycle;Max_cycle;Signal;HPM_P1;HPM_P2
2022/12/17 13:07:18;;;;;;;;;70.75;52.00;;;;;;;;5051839;28;45375;-58
2022/12/17 13:09:49;;;;;;;;;69.00;49.50;;;;;;;;5054515;28;45517;-58
2022/12/17 13:12:21;;;;;;;;;57.75;46.75;;;;;;;;5044085;28;45513;-59
2022/12/17 13:14:52;;;;;;;;;73.00;53.75;;;;;;;;5058443;28;45469;-59
2022/12/17 13:17:26;;;;;;;;;58.00;45.00;;;;;;;;5050279;28;45444;-59
2022/12/17 13:19:55;;;;;;;;;65.25;47.75;;;;;;;;5052515;28;45348;-59
2022/12/17 13:22:20;;;;;;;;;62.00;48.00;;;;;;;;5047198;28;45256;-59
2022/12/17 13:24:46;;;;;;;;;63.50;47.75;;;;;;;;5057397;28;45495;-59
2022/12/17 13:27:30;;;;;;;;;59.00;46.00;;;;;;;;5040349;28;45346;-59
2022/12/17 13:29:55;;;;;;;;;56.00;47.25;;;;;;;;5054549;28;45651;-59
2022/12/17 13:32:27;;;;;;;;;64.00;47.75;;;;;;;;5059035;28;45273;-59
2022/12/17 13:35:05;;;;;;;;;60.50;46.00;;;;;;;;5058441;28;45465;-59
2022/12/17 13:37:31;;;;;;;;;63.25;48.25;;;;;;;;5059962;28;45301;-58
2022/12/17 13:39:56;;;;;;;;;60.75;48.50;;;;;;;;5057409;28;45474;-58
2022/12/17 13:42:26;;;;;;;;;62.00;48.00;;;;;;;;5059139;28;45409;-59
2022/12/17 13:44:52;;;;;;;;;67.00;47.50;;;;;;;;5058932;28;46337;-59
2022/12/17 13:47:22;;;;;;;;;66.00;44.00;;;;;;;;5054984;28;45527;-57
2022/12/17 13:49:52;;;;;;;;;64.25;48.00;;;;;;;;5052038;28;45450;-58
2022/12/17 13:52:19;;;;;;;;;63.25;49.25;;;;;;;;5055181;28;49371;-57
2022/12/17 13:54:45;;;;;;;;;62.50;46.25;;;;;;;;5054773;28;45432;-58
2022/12/17 13:57:13;;;;;;;;;57.00;45.25;;;;;;;;5057152;28;45707;-57
2022/12/17 13:59:38;;;;;;;;;63.50;48.50;;;;;;;;5057370;28;45342;-57
2022/12/17 14:02:03;;;;;;;;;51.50;44.00;;;;;;;;5057483;28;45290;-59
2022/12/17 14:04:29;;;;;;;;;64.00;48.50;;;;;;;;5052209;28;46784;-59
2022/12/17 14:07:04;;;;;;;;;66.25;51.50;;;;;;;;5060343;28;45597;-59
2022/12/17 14:09:37;;;;;;;;;59.25;46.25;;;;;;;;5060760;28;45245;-59
2022/12/17 14:12:22;;;;;;;;;61.50;48.50;;;;;;;;5057199;28;46853;-58
2022/12/17 14:14:48;;;;;;;;;55.00;41.25;;;;;;;;5053105;28;45737;-53
2022/12/17 14:17:15;;;;;;;;;59.75;46.50;;;;;;;;5053450;28;45434;-54
2022/12/17 14:19:40;;;;;;;;;55.50;45.25;;;;;;;;5054889;28;45407;-56
2022/12/17 14:22:05;;;;;;;;;57.00;44.75;;;;;;;;5055034;28;45575;-55
2022/12/17 14:24:31;;;;;;;;;67.25;50.25;;;;;;;;5045527;28;46200;-55
2022/12/17 14:26:57;;;;;;;;;65.50;48.00;;;;;;;;5048779;28;45717;-58
2022/12/17 14:29:24;;;;;;;;;58.25;43.50;;;;;;;;5055388;28;46684;-55
2022/12/17 14:31:57;;;;;;;;;60.50;44.25;;;;;;;;5054332;28;45562;-54
2022/12/17 14:34:22;;;;;;;;;56.75;45.25;;;;;;;;5055621;28;47172;-56
2022/12/17 14:36:53;;;;;;;;;46.75;39.75;;;;;;;;5058194;28;45791;-55
2022/12/17 14:39:20;;;;;;;;;59.50;41.25;;;;;;;;5057594;28;45504;-52
2022/12/17 14:44:29;;;;;;;;;56.25;43.50;;;;;;;;5066044;28;45749;-54
2022/12/17 14:47:17;;;;;;;;;54.25;40.75;;;;;;;;5049162;28;45514;-55
2022/12/17 14:49:57;;;;;;;;;52.50;44.00;;;;;;;;5052857;28;45346;-54
2022/12/17 14:52:29;;;;;;;;;49.25;41.25;;;;;;;;5055194;28;45372;-54
2022/12/17 14:54:54;;;;;;;;;60.25;42.75;;;;;;;;5053006;28;46294;-55
2022/12/17 14:57:21;;;;;;;;;47.00;40.25;;;;;;;;5057492;28;46037;-55
2022/12/17 14:59:46;;;;;;;;;53.75;42.50;;;;;;;;5059237;28;45609;-55
2022/12/17 15:02:25;;;;;;;;;53.50;42.75;;;;;;;;5059515;27;45497;-52
2022/12/17 15:04:59;;;;;;;;;51.00;40.75;;;;;;;;5058692;28;45667;-54
2022/12/17 15:07:26;;;;;;;;;56.50;41.00;;;;;;;;5061152;28;45477;-53
2022/12/17 15:09:52;;;;;;;;;58.00;45.75;;;;;;;;5061488;28;45362;-53
2022/12/17 15:12:18;;;;;;;;;56.75;42.00;;;;;;;;5058317;28;46484;-53
2022/12/17 15:14:44;;;;;;;;;55.75;43.25;;;;;;;;5064622;28;46147;-54
2022/12/17 15:17:09;;;;;;;;;54.50;43.25;;;;;;;;5059803;28;45395;-55
2022/12/17 15:19:34;;;;;;;;;59.50;47.25;;;;;;;;5061057;28;45425;-55
2022/12/17 15:21:59;;;;;;;;;57.00;43.00;;;;;;;;5060868;28;45440;-55
2022/12/17 15:24:24;;;;;;;;;50.75;40.75;;;;;;;;5060807;28;45456;-53
2022/12/17 15:26:50;;;;;;;;;52.50;43.75;;;;;;;;5062331;28;45330;-52
2022/12/17 15:29:15;;;;;;;;;51.00;40.00;;;;;;;;5061238;28;45617;-52
2022/12/17 15:31:40;;;;;;;;;61.75;44.25;;;;;;;;5056904;28;45415;-58
2022/12/17 15:34:05;;;;;;;;;53.25;44.75;;;;;;;;5055032;28;45618;-57
2022/12/17 15:36:31;;;;;;;;;59.25;40.75;;;;;;;;5059441;28;45393;-54
2022/12/17 15:38:57;;;;;;;;;59.75;42.50;;;;;;;;5060629;28;45394;-57
2022/12/17 15:44:06;;;;;;;;;54.00;41.75;;;;;;;;5060484;28;46583;-56
2022/12/17 15:46:31;;;;;;;;;62.25;42.25;;;;;;;;5059664;28;45785;-55
2022/12/17 15:48:56;;;;;;;;;54.50;44.50;;;;;;;;5060006;28;45399;-56
2022/12/17 15:51:22;;;;;;;;;59.25;46.50;;;;;;;;5060083;28;45267;-53
2022/12/17 15:53:48;;;;;;;;;67.75;49.25;;;;;;;;5057672;27;46093;-56
2022/12/17 15:56:17;;;;;;;;;54.25;45.50;;;;;;;;5066464;28;45509;-57
2022/12/17 15:58:42;;;;;;;;;58.25;44.25;;;;;;;;5055649;28;45337;-57
2022/12/17 16:01:07;;;;;;;;;66.50;50.75;;;;;;;;5063317;28;45520;-57
2022/12/17 16:03:32;;;;;;;;;61.75;50.75;;;;;;;;5057727;28;46214;-55
2022/12/17 16:05:59;;;;;;;;;66.75;51.75;;;;;;;;5058277;28;45487;-56
2022/12/17 16:08:24;;;;;;;;;60.25;45.75;;;;;;;;5060253;28;45500;-55
2022/12/17 16:10:50;;;;;;;;;55.50;44.25;;;;;;;;5059600;27;45557;-56
2022/12/17 16:13:16;;;;;;;;;61.75;49.25;;;;;;;;5047570;28;46366;-55
2022/12/17 16:15:41;;;;;;;;;63.75;50.00;;;;;;;;5060679;28;45392;-57
2022/12/17 16:18:06;;;;;;;;;58.00;48.00;;;;;;;;5058715;28;45479;-57
2022/12/17 16:20:31;;;;;;;;;66.75;51.75;;;;;;;;5060724;28;45310;-55
2022/12/17 16:22:56;;;;;;;;;61.00;50.25;;;;;;;;5060052;28;46020;-56
2022/12/17 16:25:22;;;;;;;;;72.50;52.00;;;;;;;;5052674;28;45354;-56
2022/12/17 16:27:47;;;;;;;;;65.25;46.00;;;;;;;;5059752;28;45211;-55
2022/12/17 16:30:12;;;;;;;;;61.25;46.50;;;;;;;;5059260;28;45271;-55
2022/12/17 16:32:37;;;;;;;;;69.00;52.50;;;;;;;;5060264;28;45338;-52
2022/12/17 16:35:03;;;;;;;;;59.25;48.75;;;;;;;;5060483;28;45226;-55
2022/12/17 16:37:28;;;;;;;;;63.25;48.00;;;;;;;;5057483;28;45633;-54
2022/12/17 16:39:54;;;;;;;;;63.75;48.50;;;;;;;;5060707;28;45195;-56
2022/12/17 16:42:19;;;;;;;;;56.25;45.75;;;;;;;;5060330;28;45339;-55
2022/12/17 16:44:44;;;;;;;;;73.25;49.00;;;;;;;;5060870;28;45238;-56
2022/12/17 16:47:09;;;;;;;;;60.50;48.00;;;;;;;;5058877;28;45257;-56
2022/12/17 16:49:35;;;;;;;;;64.00;45.50;;;;;;;;5060757;28;45335;-56
2022/12/17 16:52:02;;;;;;;;;63.00;49.50;;;;;;;;5053381;28;46043;-55
2022/12/17 16:54:28;;;;;;;;;64.75;49.50;;;;;;;;5077560;27;45480;-55
2022/12/17 16:56:54;;;;;;;;;64.75;45.50;;;;;;;;5074124;27;45513;-56
2022/12/17 16:59:19;;;;;;;;;68.25;50.00;;;;;;;;5073639;27;45438;-56
2022/12/17 17:01:46;;;;;;;;;60.50;46.25;;;;;;;;5071477;28;45437;-55
2022/12/17 17:04:12;;;;;;;;;63.25;47.50;;;;;;;;5077506;27;45227;-54
2022/12/17 17:06:38;;;;;;;;;60.75;47.75;;;;;;;;5073954;27;45471;-55
2022/12/17 17:09:04;;;;;;;;;64.25;49.25;;;;;;;;5076933;27;45298;-54
2022/12/17 17:11:29;;;;;;;;;70.50;52.00;;;;;;;;5072070;27;46105;-55
2022/12/17 17:13:55;;;;;;;;;69.25;52.00;;;;;;;;5057808;28;45583;-57
2022/12/17 17:16:21;;;;;;;;;60.00;46.00;;;;;;;;5057823;28;45384;-59
2022/12/17 17:18:46;;;;;;;;;58.75;48.75;;;;;;;;5057372;28;46127;-58
2022/12/17 17:21:18;;;;;;;;;64.50;51.50;;;;;;;;5058637;28;47325;-60
2022/12/17 17:23:43;;;;;;;;;65.00;49.75;;;;;;;;5059723;28;45446;-59
2022/12/17 17:26:09;;;;;;;;;66.75;52.00;;;;;;;;5059863;28;45299;-59
2022/12/17 17:28:34;;;;;;;;;71.75;54.25;;;;;;;;5057992;28;45433;-61
2022/12/17 17:31:00;;;;;;;;;74.25;57.50;;;;;;;;5058448;28;46537;-57
2022/12/17 17:33:33;;;;;;;;;68.75;52.75;;;;;;;;5057363;28;46481;-53
2022/12/17 17:36:05;;;;;;;;;67.50;48.25;;;;;;;;5053291;28;45409;-54
2022/12/17 17:38:34;;;;;;;;;69.25;51.00;;;;;;;;5058937;28;45787;-56
2022/12/17 17:41:00;;;;;;;;;70.75;54.25;;;;;;;;5047637;28;46402;-56
2022/12/17 17:43:25;;;;;;;;;53.25;35.75;;;;;;;;5048399;28;45429;-53
2022/12/17 17:45:51;;;;;;;;;65.00;50.00;;;;;;;;5060042;27;45536;-55
2022/12/17 17:48:17;;;;;;;;;62.75;48.50;;;;;;;;5048517;28;46495;-56
2022/12/17 17:50:42;;;;;;;;;65.75;48.25;;;;;;;;5057516;28;45666;-56
2022/12/17 17:53:07;;;;;;;;;65.50;50.00;;;;;;;;5050988;28;45244;-56
2022/12/17 17:55:33;;;;;;;;;70.75;52.25;;;;;;;;5057335;28;45692;-56
2022/12/17 17:57:58;;;;;;;;;68.50;53.75;;;;;;;;5052640;28;45405;-56
2022/12/17 18:00:23;;;;;;;;;62.25;51.50;;;;;;;;5055970;28;45520;-56
2022/12/17 18:02:48;;;;;;;;;65.75;50.75;;;;;;;;5051994;28;45288;-55
2022/12/17 18:05:14;;;;;;;;;71.75;52.00;;;;;;;;5055573;28;45334;-56
2022/12/17 18:07:39;;;;;;;;;67.50;53.75;;;;;;;;5057433;28;45611;-55
2022/12/17 18:10:04;;;;;;;;;71.75;50.50;;;;;;;;5059499;28;45390;-56
2022/12/17 18:15:13;;;;;;;;;77.50;58.25;;;;;;;;5050217;28;45331;-56
2022/12/17 18:17:39;;;;;;;;;76.50;57.75;;;;;;;;5057492;28;45403;-56
2022/12/17 18:20:04;;;;;;;;;73.50;55.50;;;;;;;;5058309;28;45549;-56
2022/12/17 18:22:29;;;;;;;;;66.75;51.75;;;;;;;;5057167;28;45438;-56
2022/12/17 18:24:55;;;;;;;;;72.25;55.00;;;;;;;;5057310;28;45468;-57
2022/12/17 18:27:20;;;;;;;;;72.00;54.50;;;;;;;;5057594;28;45533;-56
2022/12/17 18:29:45;;;;;;;;;75.75;53.75;;;;;;;;5057374;28;45406;-54
2022/12/17 18:32:10;;;;;;;;;74.00;52.75;;;;;;;;5052383;28;45793;-57
2022/12/17 18:34:35;;;;;;;;;63.50;51.25;;;;;;;;5052482;28;45520;-55
2022/12/17 18:37:01;;;;;;;;;68.25;53.25;;;;;;;;5046984;28;45331;-52
2022/12/17 18:39:26;;;;;;;;;66.50;54.50;;;;;;;;5054552;28;45380;-50
2022/12/17 18:44:36;;;;;;;;;77.25;57.25;;;;;;;;5057331;28;45644;-50
2022/12/17 18:47:01;;;;;;;;;75.25;54.25;;;;;;;;5054817;28;45458;-51
2022/12/17 18:49:26;;;;;;;;;75.50;56.25;;;;;;;;5052458;28;46304;-52
2022/12/17 18:51:52;;;;;;;;;66.50;51.75;;;;;;;;5057261;28;45678;-53
2022/12/17 18:54:22;;;;;;;;;68.75;54.25;;;;;;;;5054817;28;45506;-53
2022/12/17 18:56:47;;;;;;;;;77.25;56.00;;;;;;;;5054610;28;45576;-53
2022/12/17 18:59:13;;;;;;;;;77.50;56.00;;;;;;;;5056728;28;45370;-52
2022/12/17 19:01:39;;;;;;;;;75.50;54.00;;;;;;;;5055295;28;45425;-53
2022/12/17 19:04:05;;;;;;;;;78.25;61.00;;;;;;;;5056174;28;45776;-53
2022/12/17 19:06:31;;;;;;;;;82.75;63.00;;;;;;;;5056076;28;45500;-55
2022/12/17 19:08:57;;;;;;;;;76.50;59.50;;;;;;;;5058638;28;46337;-54
2022/12/17 19:11:22;;;;;;;;;87.00;63.50;;;;;;;;5050553;28;45504;-54
2022/12/17 19:13:48;;;;;;;;;83.50;59.50;;;;;;;;5052268;28;45432;-55
2022/12/17 19:16:15;;;;;;;;;82.00;64.75;;;;;;;;5056722;28;45276;-55
2022/12/17 19:18:41;;;;;;;;;83.75;60.75;;;;;;;;5057652;28;45643;-56
2022/12/17 19:21:07;;;;;;;;;73.50;55.50;;;;;;;;5056284;28;45508;-56
2022/12/17 19:23:33;;;;;;;;;82.25;60.75;;;;;;;;5053651;28;45462;-54
2022/12/17 19:26:09;;;;;;;;;71.75;58.75;;;;;;;;5054784;28;45315;-56
2022/12/17 19:28:35;;;;;;;;;74.75;56.50;;;;;;;;5062556;28;45502;-55
2022/12/17 19:31:00;;;;;;;;;73.75;56.00;;;;;;;;5054006;28;45296;-54
2022/12/17 19:33:25;;;;;;;;;66.25;53.00;;;;;;;;5056718;28;45489;-54
2022/12/17 19:35:57;;;;;;;;;75.25;55.75;;;;;;;;5054283;28;45271;-53
2022/12/17 19:38:22;;;;;;;;;71.25;55.00;;;;;;;;5052856;28;45296;-53
2022/12/17 19:40:50;;;;;;;;;65.25;51.00;;;;;;;;5057680;28;45473;-53
2022/12/17 19:43:16;;;;;;;;;62.25;48.50;;;;;;;;5052959;28;45463;-55
2022/12/17 19:45:41;;;;;;;;;71.25;52.50;;;;;;;;5056988;28;45400;-54
2022/12/17 19:48:06;;;;;;;;;61.75;47.75;;;;;;;;5058099;28;45330;-55
2022/12/17 19:50:31;;;;;;;;;64.50;52.25;;;;;;;;5055924;28;45635;-54
2022/12/17 19:52:56;;;;;;;;;64.00;48.00;;;;;;;;5060607;28;45292;-54
2022/12/17 19:55:22;;;;;;;;;62.00;45.75;;;;;;;;5061033;28;45202;-55
2022/12/17 19:57:47;;;;;;;;;69.00;51.25;;;;;;;;5059622;28;47920;-56
2022/12/17 20:00:13;;;;;;;;;70.25;49.75;;;;;;;;5059670;28;45355;-55
2022/12/17 20:02:38;;;;;;;;;71.50;51.25;;;;;;;;5060719;28;45716;-55
2022/12/17 20:05:04;;;;;;;;;61.00;50.00;;;;;;;;5060366;28;45578;-55
2022/12/17 20:07:29;;;;;;;;;74.50;53.50;;;;;;;;5060626;28;46956;-55
2022/12/17 20:09:54;;;;;;;;;71.00;53.75;;;;;;;;5063544;28;45236;-54
2022/12/17 20:12:19;;;;;;;;;63.00;49.75;;;;;;;;5059446;28;45261;-53
2022/12/17 20:14:44;;;;;;;;;67.25;49.75;;;;;;;;5055897;28;45385;-56
2022/12/17 20:17:09;;;;;;;;;71.75;54.75;;;;;;;;5059199;28;46211;-54
2022/12/17 20:19:35;;;;;;;;;65.75;50.75;;;;;;;;5060692;28;45339;-55
2022/12/17 20:22:01;;;;;;;;;71.75;53.25;;;;;;;;5060155;28;45516;-54
2022/12/17 20:24:27;;;;;;;;;65.00;48.50;;;;;;;;5059351;28;45468;-56
2022/12/17 20:26:53;;;;;;;;;64.75;51.50;;;;;;;;5059541;28;47062;-54
2022/12/17 20:29:20;;;;;;;;;74.75;53.75;;;;;;;;5058348;28;46161;-53
2022/12/17 20:31:45;;;;;;;;;70.00;52.00;;;;;;;;5058865;28;45431;-55
2022/12/17 20:34:11;;;;;;;;;64.75;52.75;;;;;;;;5058616;28;45441;-55
2022/12/17 20:36:38;;;;;;;;;74.00;56.00;;;;;;;;5047044;28;47127;-55
2022/12/17 20:39:03;;;;;;;;;73.75;55.25;;;;;;;;5059050;28;45721;-53
2022/12/17 20:41:29;;;;;;;;;78.50;57.75;;;;;;;;5059030;28;45442;-55
2022/12/17 20:43:54;;;;;;;;;68.25;53.75;;;;;;;;5048508;28;45282;-54
2022/12/17 20:46:21;;;;;;;;;70.50;54.00;;;;;;;;5058349;28;47207;-55
2022/12/17 20:48:46;;;;;;;;;73.75;54.75;;;;;;;;5058426;28;45459;-55
2022/12/17 20:51:14;;;;;;;;;70.50;55.00;;;;;;;;5058544;28;45913;-54
2022/12/17 20:53:39;;;;;;;;;74.50;56.50;;;;;;;;5052513;28;45323;-53
2022/12/17 20:56:08;;;;;;;;;74.75;59.25;;;;;;;;5055532;28;46860;-51
2022/12/17 20:58:35;;;;;;;;;79.25;60.25;;;;;;;;5059207;28;45407;-54
2022/12/17 21:01:01;;;;;;;;;78.25;58.75;;;;;;;;5058185;28;45347;-54
2022/12/17 21:03:26;;;;;;;;;75.00;60.00;;;;;;;;5052909;28;45309;-55
2022/12/17 21:05:51;;;;;;;;;79.00;60.50;;;;;;;;5059012;28;45808;-53
2022/12/17 21:08:16;;;;;;;;;75.00;59.25;;;;;;;;5058442;28;46384;-54
2022/12/17 21:10:42;;;;;;;;;75.00;57.50;;;;;;;;5059270;28;45338;-55
2022/12/17 21:15:52;;;;;;;;;72.50;55.00;;;;;;;;5057499;28;45809;-52
2022/12/17 21:18:17;;;;;;;;;80.50;59.50;;;;;;;;5058883;28;45339;-54
2022/12/17 21:20:42;;;;;;;;;74.25;55.50;;;;;;;;5058945;28;45677;-55
2022/12/17 21:23:07;;;;;;;;;73.25;56.25;;;;;;;;5057406;28;45554;-55
2022/12/17 21:25:33;;;;;;;;;66.25;53.75;;;;;;;;5053181;28;45429;-54
2022/12/17 21:27:59;;;;;;;;;70.50;56.00;;;;;;;;5050892;28;45757;-55
2022/12/17 21:30:24;;;;;;;;;77.25;57.00;;;;;;;;5054301;28;45364;-55
2022/12/17 21:32:49;;;;;;;;;77.50;55.00;;;;;;;;5057629;28;45809;-53
2022/12/17 21:35:16;;;;;;;;;73.00;53.50;;;;;;;;5056455;28;46265;-53
2022/12/17 21:37:41;;;;;;;;;70.50;56.25;;;;;;;;5057336;28;45354;-54
2022/12/17 21:40:07;;;;;;;;;74.25;58.75;;;;;;;;5059129;28;45474;-55
2022/12/17 21:45:16;;;;;;;;;70.00;46.75;;;;;;;;5056630;28;45504;-55
2022/12/17 21:47:41;;;;;;;;;68.50;53.00;;;;;;;;5056807;28;45443;-55
2022/12/17 21:50:06;;;;;;;;;71.75;55.50;;;;;;;;5054486;28;45359;-55
2022/12/17 21:52:31;;;;;;;;;77.00;57.25;;;;;;;;5055391;28;45365;-53
2022/12/17 21:54:57;;;;;;;;;80.75;56.00;;;;;;;;5056468;28;45545;-53
2022/12/17 21:57:22;;;;;;;;;66.00;54.00;;;;;;;;5051192;28;45275;-56
2022/12/17 21:59:47;;;;;;;;;67.25;52.25;;;;;;;;5056244;28;45316;-56
2022/12/17 22:02:12;;;;;;;;;59.25;46.50;;;;;;;;5056572;28;45455;-55
2022/12/17 22:04:37;;;;;;;;;64.75;51.00;;;;;;;;5057782;28;45423;-54
2022/12/17 22:07:03;;;;;;;;;69.75;52.75;;;;;;;;5055960;28;45228;-56
2022/12/17 22:09:28;;;;;;;;;62.50;50.75;;;;;;;;5058708;28;45380;-55
2022/12/17 22:14:01;;;;;;;;;66.25;47.50;;;;;;;;5056272;28;45627;-53
2022/12/17 22:14:38;;;;;;;;;65.00;48.75;;;;;;;;5051867;28;45464;-55
2022/12/17 22:17:03;;;;;;;;;60.75;47.25;;;;;;;;5056003;28;45428;-52
2022/12/17 22:19:29;;;;;;;;;70.25;50.25;;;;;;;;5057429;28;45571;-56
2022/12/17 22:21:54;;;;;;;;;63.00;51.00;;;;;;;;5056414;28;45208;-54
2022/12/17 22:24:20;;;;;;;;;70.50;53.00;;;;;;;;5051072;28;45386;-55
2022/12/17 22:26:46;;;;;;;;;69.25;53.25;;;;;;;;5056691;28;45550;-56
2022/12/17 22:32:58;;;;;;;;;65.25;47.25;;;;;;;;5057302;28;45258;-55
2022/12/17 22:34:40;;;;;;;;;62.25;48.25;;;;;;;;5054525;28;45303;-56
2022/12/17 22:37:06;;;;;;;;;61.75;48.25;;;;;;;;5057320;28;45562;-54
2022/12/17 22:39:31;;;;;;;;;69.50;49.25;;;;;;;;5055090;28;46027;-55
2022/12/17 22:44:40;;;;;;;;;55.00;47.75;;;;;;;;5064779;28;45370;-54
2022/12/17 22:47:05;;;;;;;;;64.00;51.50;;;;;;;;5055155;28;45223;-52
2022/12/17 22:49:30;;;;;;;;;61.00;47.75;;;;;;;;5056478;28;45296;-53
2022/12/17 22:51:55;;;;;;;;;53.50;44.25;;;;;;;;5049669;28;45484;-52
2022/12/17 22:54:20;;;;;;;;;67.75;48.25;;;;;;;;5066211;27;46169;-55
2022/12/17 22:56:46;;;;;;;;;65.00;53.50;;;;;;;;5059773;27;45317;-54
2022/12/17 22:59:15;;;;;;;;;63.50;51.25;;;;;;;;5064859;27;45392;-54
2022/12/17 23:01:41;;;;;;;;;65.50;52.75;;;;;;;;5058583;28;45403;-54
2022/12/17 23:04:06;;;;;;;;;70.75;52.25;;;;;;;;5066954;27;45389;-55
2022/12/17 23:06:31;;;;;;;;;62.75;48.00;;;;;;;;5061980;28;46105;-54
2022/12/17 23:08:57;;;;;;;;;63.50;49.50;;;;;;;;5060367;28;45501;-53
2022/12/17 23:11:24;;;;;;;;;60.50;50.25;;;;;;;;5068860;28;45532;-55
2022/12/17 23:13:50;;;;;;;;;66.50;49.50;;;;;;;;5060183;28;45739;-54
2022/12/17 23:16:15;;;;;;;;;60.00;45.75;;;;;;;;5060049;28;46307;-55
2022/12/17 23:18:41;;;;;;;;;60.50;46.25;;;;;;;;5057283;27;45610;-55
2022/12/17 23:21:14;;;;;;;;;60.00;48.75;;;;;;;;5057805;28;45801;-55
2022/12/17 23:23:39;;;;;;;;;63.25;50.00;;;;;;;;5043616;28;46174;-53
2022/12/17 23:26:15;;;;;;;;;63.25;49.25;;;;;;;;5055441;28;45477;-54
2022/12/17 23:28:40;;;;;;;;;52.00;45.75;;;;;;;;5061234;28;45461;-55
